sensor_id;sensor_type;location;lat;lon;timestamp;P1;durP1;ratioP1;P2;durP2;ratioP2
16957;SDS011;8595;52.542;11.974;2022-11-15T00:00:47;32.87;;;23.73;;
16957;SDS011;8595;52.542;11.974;2022-11-15T00:03:15;33.73;;;23.97;;
16957;SDS011;8595;52.542;11.974;2022-11-15T00:05:42;33.80;;;24.73;;
16957;SDS011;8595;52.542;11.974;2022-11-15T00:08:09;32.40;;;23.43;;
16957;SDS011;8595;52.542;11.974;2022-11-15T00:10:36;33.87;;;23.13;;
16957;SDS011;8595;52.542;11.974;2022-11-15T00:13:06;34.37;;;25.17;;
16957;SDS011;8595;52.542;11.974;2022-11-15T00:15:35;30.57;;;21.33;;
16957;SDS011;8595;52.542;11.974;2022-11-15T00:18:02;32.13;;;22.97;;
16957;SDS011;8595;52.542;11.974;2022-11-15T00:20:30;35.07;;;25.23;;
16957;SDS011;8595;52.542;11.974;2022-11-15T00:22:57;33.87;;;24.93;;
16957;SDS011;8595;52.542;11.974;2022-11-15T00:27:54;35.77;;;23.90;;
16957;SDS011;8595;52.542;11.974;2022-11-15T00:30:21;33.90;;;22.60;;
16957;SDS011;8595;52.542;11.974;2022-11-15T00:32:50;34.80;;;22.93;;
16957;SDS011;8595;52.542;11.974;2022-11-15T00:35:16;30.63;;;21.80;;
16957;SDS011;8595;52.542;11.974;2022-11-15T00:37:43;33.10;;;22.43;;
16957;SDS011;8595;52.542;11.974;2022-11-15T00:40:11;33.77;;;23.73;;
16957;SDS011;8595;52.542;11.974;2022-11-15T00:42:38;34.77;;;24.57;;
16957;SDS011;8595;52.542;11.974;2022-11-15T00:45:05;36.63;;;25.17;;
16957;SDS011;8595;52.542;11.974;2022-11-15T00:47:33;33.30;;;21.70;;
16957;SDS011;8595;52.542;11.974;2022-11-15T00:50:01;31.87;;;22.03;;
16957;SDS011;8595;52.542;11.974;2022-11-15T00:52:29;31.27;;;22.53;;
16957;SDS011;8595;52.542;11.974;2022-11-15T00:54:55;30.77;;;20.63;;
16957;SDS011;8595;52.542;11.974;2022-11-15T00:57:22;35.63;;;23.00;;
16957;SDS011;8595;52.542;11.974;2022-11-15T00:59:49;30.07;;;21.83;;
16957;SDS011;8595;52.542;11.974;2022-11-15T01:02:15;34.57;;;23.23;;
16957;SDS011;8595;52.542;11.974;2022-11-15T01:04:43;32.63;;;23.00;;
16957;SDS011;8595;52.542;11.974;2022-11-15T01:07:11;31.47;;;23.17;;
16957;SDS011;8595;52.542;11.974;2022-11-15T01:09:38;35.17;;;23.97;;
16957;SDS011;8595;52.542;11.974;2022-11-15T01:12:05;31.80;;;23.13;;
16957;SDS011;8595;52.542;11.974;2022-11-15T01:14:31;33.20;;;24.20;;
16957;SDS011;8595;52.542;11.974;2022-11-15T01:16:58;31.43;;;21.83;;
16957;SDS011;8595;52.542;11.974;2022-11-15T01:19:25;35.17;;;23.30;;
16957;SDS011;8595;52.542;11.974;2022-11-15T01:21:52;31.60;;;23.73;;
16957;SDS011;8595;52.542;11.974;2022-11-15T01:24:20;32.17;;;23.33;;
16957;SDS011;8595;52.542;11.974;2022-11-15T01:26:47;33.77;;;21.77;;
16957;SDS011;8595;52.542;11.974;2022-11-15T01:29:13;32.63;;;23.17;;
16957;SDS011;8595;52.542;11.974;2022-11-15T01:31:40;28.00;;;20.37;;
16957;SDS011;8595;52.542;11.974;2022-11-15T01:34:07;29.70;;;20.13;;
16957;SDS011;8595;52.542;11.974;2022-11-15T01:36:34;28.53;;;20.57;;
16957;SDS011;8595;52.542;11.974;2022-11-15T01:39:00;29.23;;;21.37;;
16957;SDS011;8595;52.542;11.974;2022-11-15T01:41:29;29.77;;;22.80;;
16957;SDS011;8595;52.542;11.974;2022-11-15T01:47:03;35.13;;;23.03;;
16957;SDS011;8595;52.542;11.974;2022-11-15T01:49:33;30.60;;;21.73;;
16957;SDS011;8595;52.542;11.974;2022-11-15T01:52:05;33.80;;;21.23;;
16957;SDS011;8595;52.542;11.974;2022-11-15T01:54:35;31.60;;;21.87;;
16957;SDS011;8595;52.542;11.974;2022-11-15T01:57:03;34.33;;;21.30;;
16957;SDS011;8595;52.542;11.974;2022-11-15T01:59:34;30.43;;;20.27;;
16957;SDS011;8595;52.542;11.974;2022-11-15T02:02:02;32.80;;;21.40;;
16957;SDS011;8595;52.542;11.974;2022-11-15T02:04:30;31.40;;;22.83;;
16957;SDS011;8595;52.542;11.974;2022-11-15T02:06:58;35.67;;;24.30;;
16957;SDS011;8595;52.542;11.974;2022-11-15T02:09:27;30.73;;;22.20;;
16957;SDS011;8595;52.542;11.974;2022-11-15T02:11:55;31.10;;;20.40;;
16957;SDS011;8595;52.542;11.974;2022-11-15T02:14:24;30.63;;;21.40;;
16957;SDS011;8595;52.542;11.974;2022-11-15T02:16:54;30.80;;;21.23;;
16957;SDS011;8595;52.542;11.974;2022-11-15T02:19:40;33.40;;;22.57;;
16957;SDS011;8595;52.542;11.974;2022-11-15T02:22:42;28.87;;;19.97;;
16957;SDS011;8595;52.542;11.974;2022-11-15T02:25:30;29.50;;;19.53;;
16957;SDS011;8595;52.542;11.974;2022-11-15T02:30:54;31.77;;;21.80;;
16957;SDS011;8595;52.542;11.974;2022-11-15T02:33:32;32.03;;;21.33;;
16957;SDS011;8595;52.542;11.974;2022-11-15T02:36:05;28.10;;;21.03;;
16957;SDS011;8595;52.542;11.974;2022-11-15T02:38:38;31.77;;;21.03;;
16957;SDS011;8595;52.542;11.974;2022-11-15T02:41:12;29.40;;;19.70;;
16957;SDS011;8595;52.542;11.974;2022-11-15T02:43:43;29.83;;;21.57;;
16957;SDS011;8595;52.542;11.974;2022-11-15T02:46:23;32.47;;;20.43;;
16957;SDS011;8595;52.542;11.974;2022-11-15T02:49:11;34.63;;;21.17;;
16957;SDS011;8595;52.542;11.974;2022-11-15T02:51:40;30.33;;;20.13;;
16957;SDS011;8595;52.542;11.974;2022-11-15T02:54:10;30.63;;;20.60;;
16957;SDS011;8595;52.542;11.974;2022-11-15T02:56:38;32.53;;;21.40;;
16957;SDS011;8595;52.542;11.974;2022-11-15T02:59:09;32.67;;;20.70;;
16957;SDS011;8595;52.542;11.974;2022-11-15T03:01:50;29.87;;;19.90;;
16957;SDS011;8595;52.542;11.974;2022-11-15T03:04:28;30.00;;;20.00;;
16957;SDS011;8595;52.542;11.974;2022-11-15T03:07:04;32.13;;;20.87;;
16957;SDS011;8595;52.542;11.974;2022-11-15T03:09:39;29.03;;;20.87;;
16957;SDS011;8595;52.542;11.974;2022-11-15T03:12:13;30.23;;;20.03;;
16957;SDS011;8595;52.542;11.974;2022-11-15T03:14:49;30.00;;;19.90;;
16957;SDS011;8595;52.542;11.974;2022-11-15T03:17:22;29.57;;;19.67;;
16957;SDS011;8595;52.542;11.974;2022-11-15T03:19:52;29.47;;;19.87;;
16957;SDS011;8595;52.542;11.974;2022-11-15T03:22:22;32.60;;;21.27;;
16957;SDS011;8595;52.542;11.974;2022-11-15T03:24:54;31.27;;;21.00;;
16957;SDS011;8595;52.542;11.974;2022-11-15T03:27:24;29.80;;;21.43;;
16957;SDS011;8595;52.542;11.974;2022-11-15T03:29:56;31.33;;;22.10;;
16957;SDS011;8595;52.542;11.974;2022-11-15T03:32:28;29.17;;;20.03;;
16957;SDS011;8595;52.542;11.974;2022-11-15T03:34:57;28.00;;;18.50;;
16957;SDS011;8595;52.542;11.974;2022-11-15T03:37:29;32.60;;;19.90;;
16957;SDS011;8595;52.542;11.974;2022-11-15T03:40:00;29.57;;;21.70;;
16957;SDS011;8595;52.542;11.974;2022-11-15T03:42:30;32.03;;;21.33;;
16957;SDS011;8595;52.542;11.974;2022-11-15T03:45:01;30.87;;;20.93;;
16957;SDS011;8595;52.542;11.974;2022-11-15T03:47:36;31.13;;;21.93;;
16957;SDS011;8595;52.542;11.974;2022-11-15T03:50:07;31.73;;;22.67;;
16957;SDS011;8595;52.542;11.974;2022-11-15T03:52:38;31.00;;;21.60;;
16957;SDS011;8595;52.542;11.974;2022-11-15T03:55:07;32.77;;;22.53;;
16957;SDS011;8595;52.542;11.974;2022-11-15T03:57:37;30.00;;;19.13;;
16957;SDS011;8595;52.542;11.974;2022-11-15T04:00:04;31.13;;;22.90;;
16957;SDS011;8595;52.542;11.974;2022-11-15T04:02:32;27.63;;;19.77;;
16957;SDS011;8595;52.542;11.974;2022-11-15T04:05:00;32.20;;;21.60;;
16957;SDS011;8595;52.542;11.974;2022-11-15T04:07:28;33.73;;;21.40;;
16957;SDS011;8595;52.542;11.974;2022-11-15T04:09:55;30.80;;;19.50;;
16957;SDS011;8595;52.542;11.974;2022-11-15T04:12:28;27.27;;;18.33;;
16957;SDS011;8595;52.542;11.974;2022-11-15T04:14:58;30.07;;;19.77;;
16957;SDS011;8595;52.542;11.974;2022-11-15T04:17:37;26.00;;;18.60;;
16957;SDS011;8595;52.542;11.974;2022-11-15T04:20:07;30.87;;;19.93;;
16957;SDS011;8595;52.542;11.974;2022-11-15T04:22:54;27.20;;;17.80;;
16957;SDS011;8595;52.542;11.974;2022-11-15T04:25:39;28.20;;;18.60;;
16957;SDS011;8595;52.542;11.974;2022-11-15T04:28:06;27.63;;;18.83;;
16957;SDS011;8595;52.542;11.974;2022-11-15T04:30:33;27.10;;;18.40;;
16957;SDS011;8595;52.542;11.974;2022-11-15T04:33:00;34.43;;;20.17;;
16957;SDS011;8595;52.542;11.974;2022-11-15T04:35:28;25.70;;;17.87;;
16957;SDS011;8595;52.542;11.974;2022-11-15T04:37:55;32.87;;;22.60;;
16957;SDS011;8595;52.542;11.974;2022-11-15T04:40:22;31.60;;;20.37;;
16957;SDS011;8595;52.542;11.974;2022-11-15T04:42:49;32.83;;;19.40;;
16957;SDS011;8595;52.542;11.974;2022-11-15T04:45:16;34.00;;;22.20;;
16957;SDS011;8595;52.542;11.974;2022-11-15T04:47:43;31.27;;;19.27;;
16957;SDS011;8595;52.542;11.974;2022-11-15T04:50:11;32.13;;;19.47;;
16957;SDS011;8595;52.542;11.974;2022-11-15T04:52:40;32.03;;;18.63;;
16957;SDS011;8595;52.542;11.974;2022-11-15T04:55:07;28.80;;;18.50;;
16957;SDS011;8595;52.542;11.974;2022-11-15T04:57:34;31.33;;;20.17;;
16957;SDS011;8595;52.542;11.974;2022-11-15T05:00:02;33.47;;;20.00;;
16957;SDS011;8595;52.542;11.974;2022-11-15T05:02:30;27.73;;;18.37;;
16957;SDS011;8595;52.542;11.974;2022-11-15T05:05:11;32.13;;;21.87;;
16957;SDS011;8595;52.542;11.974;2022-11-15T05:07:40;25.60;;;18.57;;
16957;SDS011;8595;52.542;11.974;2022-11-15T05:10:07;28.23;;;19.67;;
16957;SDS011;8595;52.542;11.974;2022-11-15T05:12:34;27.80;;;19.90;;
16957;SDS011;8595;52.542;11.974;2022-11-15T05:15:01;29.13;;;19.60;;
16957;SDS011;8595;52.542;11.974;2022-11-15T05:17:28;29.23;;;18.77;;
16957;SDS011;8595;52.542;11.974;2022-11-15T05:19:55;28.47;;;18.63;;
16957;SDS011;8595;52.542;11.974;2022-11-15T05:22:22;29.00;;;20.47;;
16957;SDS011;8595;52.542;11.974;2022-11-15T05:24:50;23.73;;;16.60;;
16957;SDS011;8595;52.542;11.974;2022-11-15T05:27:17;26.47;;;17.87;;
16957;SDS011;8595;52.542;11.974;2022-11-15T05:29:43;27.27;;;18.57;;
16957;SDS011;8595;52.542;11.974;2022-11-15T05:32:10;32.83;;;21.27;;
16957;SDS011;8595;52.542;11.974;2022-11-15T05:34:38;26.97;;;17.80;;
16957;SDS011;8595;52.542;11.974;2022-11-15T05:37:05;27.03;;;19.60;;
16957;SDS011;8595;52.542;11.974;2022-11-15T05:39:32;27.40;;;17.30;;
16957;SDS011;8595;52.542;11.974;2022-11-15T05:42:00;26.33;;;18.77;;
16957;SDS011;8595;52.542;11.974;2022-11-15T05:44:32;32.93;;;19.70;;
16957;SDS011;8595;52.542;11.974;2022-11-15T05:46:59;24.07;;;17.27;;
16957;SDS011;8595;52.542;11.974;2022-11-15T05:49:27;24.67;;;17.47;;
16957;SDS011;8595;52.542;11.974;2022-11-15T05:51:57;32.67;;;19.33;;
16957;SDS011;8595;52.542;11.974;2022-11-15T05:54:24;26.80;;;19.23;;
16957;SDS011;8595;52.542;11.974;2022-11-15T05:56:51;28.10;;;19.27;;
16957;SDS011;8595;52.542;11.974;2022-11-15T05:59:22;27.80;;;18.90;;
16957;SDS011;8595;52.542;11.974;2022-11-15T06:01:49;31.10;;;21.13;;
16957;SDS011;8595;52.542;11.974;2022-11-15T06:04:16;36.67;;;23.83;;
16957;SDS011;8595;52.542;11.974;2022-11-15T06:06:43;30.13;;;20.10;;
16957;SDS011;8595;52.542;11.974;2022-11-15T06:09:09;30.23;;;21.00;;
16957;SDS011;8595;52.542;11.974;2022-11-15T06:11:36;28.87;;;18.27;;
16957;SDS011;8595;52.542;11.974;2022-11-15T06:14:03;31.10;;;19.90;;
16957;SDS011;8595;52.542;11.974;2022-11-15T06:16:31;29.23;;;19.73;;
16957;SDS011;8595;52.542;11.974;2022-11-15T06:18:58;30.57;;;20.57;;
16957;SDS011;8595;52.542;11.974;2022-11-15T06:21:25;30.17;;;18.40;;
16957;SDS011;8595;52.542;11.974;2022-11-15T06:23:52;25.30;;;16.13;;
16957;SDS011;8595;52.542;11.974;2022-11-15T06:26:19;30.10;;;19.10;;
16957;SDS011;8595;52.542;11.974;2022-11-15T06:28:46;28.17;;;17.53;;
16957;SDS011;8595;52.542;11.974;2022-11-15T06:31:13;25.37;;;17.50;;
16957;SDS011;8595;52.542;11.974;2022-11-15T06:33:41;23.87;;;16.13;;
16957;SDS011;8595;52.542;11.974;2022-11-15T06:36:09;24.77;;;17.93;;
16957;SDS011;8595;52.542;11.974;2022-11-15T06:38:38;25.57;;;16.87;;
16957;SDS011;8595;52.542;11.974;2022-11-15T06:41:06;27.40;;;19.27;;
16957;SDS011;8595;52.542;11.974;2022-11-15T06:43:34;25.23;;;16.90;;
16957;SDS011;8595;52.542;11.974;2022-11-15T06:46:02;28.13;;;20.53;;
16957;SDS011;8595;52.542;11.974;2022-11-15T06:48:30;25.70;;;17.23;;
16957;SDS011;8595;52.542;11.974;2022-11-15T06:50:59;26.03;;;18.23;;
16957;SDS011;8595;52.542;11.974;2022-11-15T06:53:27;24.50;;;17.70;;
16957;SDS011;8595;52.542;11.974;2022-11-15T06:55:57;24.80;;;16.73;;
16957;SDS011;8595;52.542;11.974;2022-11-15T06:58:25;39.07;;;22.47;;
16957;SDS011;8595;52.542;11.974;2022-11-15T07:00:52;23.50;;;17.00;;
16957;SDS011;8595;52.542;11.974;2022-11-15T07:03:19;25.03;;;17.30;;
16957;SDS011;8595;52.542;11.974;2022-11-15T07:05:50;34.77;;;19.73;;
16957;SDS011;8595;52.542;11.974;2022-11-15T07:08:19;27.57;;;17.93;;
16957;SDS011;8595;52.542;11.974;2022-11-15T07:10:46;22.97;;;15.70;;
16957;SDS011;8595;52.542;11.974;2022-11-15T07:13:13;22.40;;;16.37;;
16957;SDS011;8595;52.542;11.974;2022-11-15T07:15:40;22.83;;;16.10;;
16957;SDS011;8595;52.542;11.974;2022-11-15T07:18:07;27.17;;;18.10;;
16957;SDS011;8595;52.542;11.974;2022-11-15T07:20:34;28.63;;;16.77;;
16957;SDS011;8595;52.542;11.974;2022-11-15T07:23:01;27.30;;;17.23;;
16957;SDS011;8595;52.542;11.974;2022-11-15T07:25:29;22.83;;;15.97;;
16957;SDS011;8595;52.542;11.974;2022-11-15T07:27:56;24.50;;;17.47;;
16957;SDS011;8595;52.542;11.974;2022-11-15T07:30:24;21.90;;;15.77;;
16957;SDS011;8595;52.542;11.974;2022-11-15T07:32:53;29.63;;;19.50;;
16957;SDS011;8595;52.542;11.974;2022-11-15T07:35:21;27.20;;;18.57;;
16957;SDS011;8595;52.542;11.974;2022-11-15T07:37:55;23.80;;;18.10;;
16957;SDS011;8595;52.542;11.974;2022-11-15T07:40:22;23.67;;;17.40;;
16957;SDS011;8595;52.542;11.974;2022-11-15T07:42:51;25.27;;;19.20;;
16957;SDS011;8595;52.542;11.974;2022-11-15T07:45:22;23.93;;;16.10;;
16957;SDS011;8595;52.542;11.974;2022-11-15T07:47:51;24.57;;;17.17;;
16957;SDS011;8595;52.542;11.974;2022-11-15T07:50:19;26.63;;;17.53;;
16957;SDS011;8595;52.542;11.974;2022-11-15T07:52:46;22.90;;;16.40;;
16957;SDS011;8595;52.542;11.974;2022-11-15T07:55:31;23.27;;;17.87;;
16957;SDS011;8595;52.542;11.974;2022-11-15T07:58:02;23.23;;;16.03;;
16957;SDS011;8595;52.542;11.974;2022-11-15T08:00:29;25.53;;;16.33;;
16957;SDS011;8595;52.542;11.974;2022-11-15T08:03:04;25.27;;;16.63;;
16957;SDS011;8595;52.542;11.974;2022-11-15T08:05:31;22.03;;;15.60;;
16957;SDS011;8595;52.542;11.974;2022-11-15T08:07:58;23.57;;;16.87;;
16957;SDS011;8595;52.542;11.974;2022-11-15T08:10:26;21.10;;;15.00;;
16957;SDS011;8595;52.542;11.974;2022-11-15T08:12:57;22.23;;;15.97;;
16957;SDS011;8595;52.542;11.974;2022-11-15T08:15:26;21.07;;;15.50;;
16957;SDS011;8595;52.542;11.974;2022-11-15T08:17:54;16.17;;;14.00;;
16957;SDS011;8595;52.542;11.974;2022-11-15T08:20:21;19.27;;;14.53;;
16957;SDS011;8595;52.542;11.974;2022-11-15T08:22:47;18.70;;;15.82;;
16957;SDS011;8595;52.542;11.974;2022-11-15T08:25:14;19.25;;;14.60;;
16957;SDS011;8595;52.542;11.974;2022-11-15T08:27:42;20.90;;;14.68;;
16957;SDS011;8595;52.542;11.974;2022-11-15T08:30:09;18.63;;;14.93;;
16957;SDS011;8595;52.542;11.974;2022-11-15T08:32:38;20.85;;;14.52;;
16957;SDS011;8595;52.542;11.974;2022-11-15T08:35:05;21.00;;;16.10;;
16957;SDS011;8595;52.542;11.974;2022-11-15T08:37:33;19.67;;;14.00;;
16957;SDS011;8595;52.542;11.974;2022-11-15T08:40:01;17.25;;;13.95;;
16957;SDS011;8595;52.542;11.974;2022-11-15T08:42:28;17.20;;;13.43;;
16957;SDS011;8595;52.542;11.974;2022-11-15T08:44:55;17.48;;;14.50;;
16957;SDS011;8595;52.542;11.974;2022-11-15T08:47:22;15.18;;;10.93;;
16957;SDS011;8595;52.542;11.974;2022-11-15T08:49:50;16.65;;;12.50;;
16957;SDS011;8595;52.542;11.974;2022-11-15T08:52:17;17.23;;;11.63;;
16957;SDS011;8595;52.542;11.974;2022-11-15T08:54:44;14.40;;;10.75;;
16957;SDS011;8595;52.542;11.974;2022-11-15T08:57:11;14.55;;;11.80;;
16957;SDS011;8595;52.542;11.974;2022-11-15T08:59:38;14.43;;;10.68;;
16957;SDS011;8595;52.542;11.974;2022-11-15T09:02:05;14.40;;;10.77;;
16957;SDS011;8595;52.542;11.974;2022-11-15T09:04:32;12.73;;;10.45;;
16957;SDS011;8595;52.542;11.974;2022-11-15T09:07:00;14.50;;;10.50;;
16957;SDS011;8595;52.542;11.974;2022-11-15T09:09:27;14.07;;;10.93;;
16957;SDS011;8595;52.542;11.974;2022-11-15T09:11:53;16.30;;;12.57;;
16957;SDS011;8595;52.542;11.974;2022-11-15T09:14:20;14.38;;;12.43;;
16957;SDS011;8595;52.542;11.974;2022-11-15T09:16:47;13.73;;;12.32;;
16957;SDS011;8595;52.542;11.974;2022-11-15T09:19:14;12.50;;;11.20;;
16957;SDS011;8595;52.542;11.974;2022-11-15T09:21:40;12.57;;;10.45;;
16957;SDS011;8595;52.542;11.974;2022-11-15T09:24:09;14.32;;;10.20;;
16957;SDS011;8595;52.542;11.974;2022-11-15T09:26:35;15.00;;;11.80;;
16957;SDS011;8595;52.542;11.974;2022-11-15T09:29:02;13.60;;;10.75;;
16957;SDS011;8595;52.542;11.974;2022-11-15T09:31:29;13.48;;;12.05;;
16957;SDS011;8595;52.542;11.974;2022-11-15T09:33:57;15.27;;;9.55;;
16957;SDS011;8595;52.542;11.974;2022-11-15T09:36:23;10.05;;;8.98;;
16957;SDS011;8595;52.542;11.974;2022-11-15T09:38:50;12.00;;;10.75;;
16957;SDS011;8595;52.542;11.974;2022-11-15T09:44:36;13.73;;;10.43;;
16957;SDS011;8595;52.542;11.974;2022-11-15T09:47:16;11.88;;;9.02;;
16957;SDS011;8595;52.542;11.974;2022-11-15T09:50:01;11.82;;;9.32;;
16957;SDS011;8595;52.542;11.974;2022-11-15T09:52:35;13.48;;;9.88;;
16957;SDS011;8595;52.542;11.974;2022-11-15T09:55:04;11.98;;;9.90;;
16957;SDS011;8595;52.542;11.974;2022-11-15T09:57:38;12.27;;;10.50;;
16957;SDS011;8595;52.542;11.974;2022-11-15T10:00:12;13.95;;;9.55;;
16957;SDS011;8595;52.542;11.974;2022-11-15T10:02:46;10.70;;;8.63;;
16957;SDS011;8595;52.542;11.974;2022-11-15T10:05:25;10.10;;;8.57;;
16957;SDS011;8595;52.542;11.974;2022-11-15T10:07:54;10.18;;;9.10;;
16957;SDS011;8595;52.542;11.974;2022-11-15T10:10:27;9.68;;;8.52;;
16957;SDS011;8595;52.542;11.974;2022-11-15T10:12:59;9.57;;;7.75;;
16957;SDS011;8595;52.542;11.974;2022-11-15T10:15:26;9.10;;;7.75;;
16957;SDS011;8595;52.542;11.974;2022-11-15T10:20:46;11.20;;;8.30;;
16957;SDS011;8595;52.542;11.974;2022-11-15T10:23:15;8.73;;;6.88;;
16957;SDS011;8595;52.542;11.974;2022-11-15T10:25:44;8.55;;;6.40;;
16957;SDS011;8595;52.542;11.974;2022-11-15T10:28:13;11.48;;;8.13;;
16957;SDS011;8595;52.542;11.974;2022-11-15T10:30:44;11.70;;;7.22;;
16957;SDS011;8595;52.542;11.974;2022-11-15T10:36:19;9.82;;;7.35;;
16957;SDS011;8595;52.542;11.974;2022-11-15T10:38:53;9.18;;;7.68;;
16957;SDS011;8595;52.542;11.974;2022-11-15T10:41:22;9.40;;;7.45;;
16957;SDS011;8595;52.542;11.974;2022-11-15T10:46:47;10.52;;;7.80;;
16957;SDS011;8595;52.542;11.974;2022-11-15T10:49:30;9.70;;;7.38;;
16957;SDS011;8595;52.542;11.974;2022-11-15T10:51:58;8.27;;;7.47;;
16957;SDS011;8595;52.542;11.974;2022-11-15T10:54:39;7.35;;;6.47;;
16957;SDS011;8595;52.542;11.974;2022-11-15T10:57:10;8.50;;;7.25;;
16957;SDS011;8595;52.542;11.974;2022-11-15T10:59:44;6.57;;;5.97;;
16957;SDS011;8595;52.542;11.974;2022-11-15T11:02:30;8.88;;;6.93;;
16957;SDS011;8595;52.542;11.974;2022-11-15T11:04:58;8.23;;;7.10;;
16957;SDS011;8595;52.542;11.974;2022-11-15T11:07:27;7.55;;;6.85;;
16957;SDS011;8595;52.542;11.974;2022-11-15T11:09:59;6.85;;;6.15;;
16957;SDS011;8595;52.542;11.974;2022-11-15T11:12:29;8.38;;;6.25;;
16957;SDS011;8595;52.542;11.974;2022-11-15T11:14:59;7.05;;;6.38;;
16957;SDS011;8595;52.542;11.974;2022-11-15T11:17:39;7.90;;;6.35;;
16957;SDS011;8595;52.542;11.974;2022-11-15T11:20:18;8.10;;;6.95;;
16957;SDS011;8595;52.542;11.974;2022-11-15T11:25:45;8.43;;;6.60;;
16957;SDS011;8595;52.542;11.974;2022-11-15T11:28:20;8.30;;;5.90;;
16957;SDS011;8595;52.542;11.974;2022-11-15T11:31:00;6.85;;;5.13;;
16957;SDS011;8595;52.542;11.974;2022-11-15T11:33:37;7.07;;;6.30;;
16957;SDS011;8595;52.542;11.974;2022-11-15T11:36:13;5.68;;;5.05;;
16957;SDS011;8595;52.542;11.974;2022-11-15T11:38:51;7.60;;;6.30;;
16957;SDS011;8595;52.542;11.974;2022-11-15T11:41:27;6.75;;;5.82;;
16957;SDS011;8595;52.542;11.974;2022-11-15T11:44:10;7.82;;;6.18;;
16957;SDS011;8595;52.542;11.974;2022-11-15T11:46:51;7.00;;;6.30;;
16957;SDS011;8595;52.542;11.974;2022-11-15T11:49:23;7.05;;;6.03;;
16957;SDS011;8595;52.542;11.974;2022-11-15T11:52:00;7.47;;;6.72;;
16957;SDS011;8595;52.542;11.974;2022-11-15T11:54:31;6.97;;;6.22;;
16957;SDS011;8595;52.542;11.974;2022-11-15T11:57:04;6.72;;;5.82;;
16957;SDS011;8595;52.542;11.974;2022-11-15T11:59:37;8.57;;;7.28;;
16957;SDS011;8595;52.542;11.974;2022-11-15T12:02:13;8.18;;;6.85;;
16957;SDS011;8595;52.542;11.974;2022-11-15T12:04:45;7.22;;;6.53;;
16957;SDS011;8595;52.542;11.974;2022-11-15T12:07:17;7.63;;;6.82;;
16957;SDS011;8595;52.542;11.974;2022-11-15T12:09:51;6.65;;;6.03;;
16957;SDS011;8595;52.542;11.974;2022-11-15T12:12:28;7.75;;;6.65;;
16957;SDS011;8595;52.542;11.974;2022-11-15T12:15:00;7.30;;;6.50;;
16957;SDS011;8595;52.542;11.974;2022-11-15T12:17:31;8.82;;;6.53;;
16957;SDS011;8595;52.542;11.974;2022-11-15T12:19:58;7.65;;;6.75;;
16957;SDS011;8595;52.542;11.974;2022-11-15T12:22:31;6.68;;;6.00;;
16957;SDS011;8595;52.542;11.974;2022-11-15T12:25:05;6.38;;;5.75;;
16957;SDS011;8595;52.542;11.974;2022-11-15T12:27:41;6.90;;;6.20;;
16957;SDS011;8595;52.542;11.974;2022-11-15T12:30:12;7.18;;;5.65;;
16957;SDS011;8595;52.542;11.974;2022-11-15T12:32:49;8.93;;;5.25;;
16957;SDS011;8595;52.542;11.974;2022-11-15T12:35:21;6.13;;;5.53;;
16957;SDS011;8595;52.542;11.974;2022-11-15T12:37:51;11.18;;;6.15;;
16957;SDS011;8595;52.542;11.974;2022-11-15T12:40:32;6.07;;;5.53;;
16957;SDS011;8595;52.542;11.974;2022-11-15T12:43:02;6.22;;;5.60;;
16957;SDS011;8595;52.542;11.974;2022-11-15T12:45:56;9.65;;;5.22;;
16957;SDS011;8595;52.542;11.974;2022-11-15T12:48:48;6.80;;;4.97;;
16957;SDS011;8595;52.542;11.974;2022-11-15T12:51:20;6.82;;;5.65;;
16957;SDS011;8595;52.542;11.974;2022-11-15T12:53:48;9.57;;;5.35;;
16957;SDS011;8595;52.542;11.974;2022-11-15T12:56:19;6.20;;;5.60;;
16957;SDS011;8595;52.542;11.974;2022-11-15T12:58:48;9.18;;;5.82;;
16957;SDS011;8595;52.542;11.974;2022-11-15T13:04:26;8.10;;;5.95;;
16957;SDS011;8595;52.542;11.974;2022-11-15T13:06:57;6.65;;;5.70;;
16957;SDS011;8595;52.542;11.974;2022-11-15T13:15:31;6.13;;;5.38;;
16957;SDS011;8595;52.542;11.974;2022-11-15T13:21:19;7.15;;;5.68;;
16957;SDS011;8595;52.542;11.974;2022-11-15T13:24:10;7.80;;;5.53;;
16957;SDS011;8595;52.542;11.974;2022-11-15T13:26:39;8.18;;;5.20;;
16957;SDS011;8595;52.542;11.974;2022-11-15T13:29:14;6.43;;;5.10;;
16957;SDS011;8595;52.542;11.974;2022-11-15T13:31:45;7.40;;;6.20;;
16957;SDS011;8595;52.542;11.974;2022-11-15T13:34:15;7.20;;;5.97;;
16957;SDS011;8595;52.542;11.974;2022-11-15T13:36:54;7.47;;;5.45;;
16957;SDS011;8595;52.542;11.974;2022-11-15T13:39:26;7.07;;;6.35;;
16957;SDS011;8595;52.542;11.974;2022-11-15T13:41:54;9.27;;;6.20;;
16957;SDS011;8595;52.542;11.974;2022-11-15T13:44:22;8.02;;;6.03;;
16957;SDS011;8595;52.542;11.974;2022-11-15T13:47:00;6.85;;;6.07;;
16957;SDS011;8595;52.542;11.974;2022-11-15T13:49:28;10.35;;;6.95;;
16957;SDS011;8595;52.542;11.974;2022-11-15T13:51:57;8.35;;;7.13;;
16957;SDS011;8595;52.542;11.974;2022-11-15T13:54:27;7.82;;;6.35;;
16957;SDS011;8595;52.542;11.974;2022-11-15T13:56:56;9.23;;;6.72;;
16957;SDS011;8595;52.542;11.974;2022-11-15T13:59:28;10.98;;;7.85;;
16957;SDS011;8595;52.542;11.974;2022-11-15T14:01:57;7.90;;;6.97;;
16957;SDS011;8595;52.542;11.974;2022-11-15T14:04:27;8.00;;;6.75;;
16957;SDS011;8595;52.542;11.974;2022-11-15T14:07:00;10.60;;;7.60;;
16957;SDS011;8595;52.542;11.974;2022-11-15T14:09:32;12.30;;;8.93;;
16957;SDS011;8595;52.542;11.974;2022-11-15T14:12:02;8.73;;;7.65;;
16957;SDS011;8595;52.542;11.974;2022-11-15T14:14:47;10.43;;;7.90;;
16957;SDS011;8595;52.542;11.974;2022-11-15T14:17:18;19.35;;;8.32;;
16957;SDS011;8595;52.542;11.974;2022-11-15T14:19:48;10.00;;;8.40;;
16957;SDS011;8595;52.542;11.974;2022-11-15T14:22:18;10.52;;;8.20;;
16957;SDS011;8595;52.542;11.974;2022-11-15T14:24:50;18.27;;;8.70;;
16957;SDS011;8595;52.542;11.974;2022-11-15T14:27:32;11.80;;;9.82;;
16957;SDS011;8595;52.542;11.974;2022-11-15T14:29:59;10.32;;;9.32;;
16957;SDS011;8595;52.542;11.974;2022-11-15T14:32:27;10.73;;;9.63;;
16957;SDS011;8595;52.542;11.974;2022-11-15T14:34:56;12.25;;;10.57;;
16957;SDS011;8595;52.542;11.974;2022-11-15T14:37:26;12.90;;;11.07;;
16957;SDS011;8595;52.542;11.974;2022-11-15T14:39:56;12.60;;;10.73;;
16957;SDS011;8595;52.542;11.974;2022-11-15T14:42:23;11.80;;;10.15;;
16957;SDS011;8595;52.542;11.974;2022-11-15T14:44:50;14.15;;;10.90;;
16957;SDS011;8595;52.542;11.974;2022-11-15T14:47:17;13.70;;;10.65;;
16957;SDS011;8595;52.542;11.974;2022-11-15T14:49:44;12.00;;;10.05;;
16957;SDS011;8595;52.542;11.974;2022-11-15T14:52:19;15.55;;;9.60;;
16957;SDS011;8595;52.542;11.974;2022-11-15T14:54:51;15.35;;;11.13;;
16957;SDS011;8595;52.542;11.974;2022-11-15T14:57:18;12.75;;;11.00;;
16957;SDS011;8595;52.542;11.974;2022-11-15T14:59:45;12.82;;;10.45;;
16957;SDS011;8595;52.542;11.974;2022-11-15T15:02:17;15.73;;;10.50;;
16957;SDS011;8595;52.542;11.974;2022-11-15T15:04:45;11.70;;;9.65;;
16957;SDS011;8595;52.542;11.974;2022-11-15T15:07:12;16.40;;;11.00;;
16957;SDS011;8595;52.542;11.974;2022-11-15T15:09:39;14.20;;;10.68;;
16957;SDS011;8595;52.542;11.974;2022-11-15T15:12:12;15.02;;;10.85;;
16957;SDS011;8595;52.542;11.974;2022-11-15T15:14:42;18.17;;;11.88;;
16957;SDS011;8595;52.542;11.974;2022-11-15T15:17:09;18.13;;;11.52;;
16957;SDS011;8595;52.542;11.974;2022-11-15T15:19:36;17.45;;;11.18;;
16957;SDS011;8595;52.542;11.974;2022-11-15T15:22:03;16.42;;;11.98;;